• Join FlightAware (Why Join?)
  • Login
  • US Flag 
08:11AM EST


 

Airport Tracker/Info


-or-


 

Live Flight TrackerFlight Track Log ✈ D-AIMA ✈ 11-Apr-2013 ✈ FAOR / JNB - EDDF / FRA

Flight Track Log - Related Links

Times and Time Zones

All times are in EDT time to prevent confusion due to time zone crossing. See the D-AIMA flight status page for this flight to view local times or setup timezone preferences in your user account.

Time Position Orientation Groundspeed Altitude Reporting Facility
EDT Latitude Longitude Course Direction KTS MPH feet Rate Location/Type
01:25PM -26.1340 28.2380 13° North 124 143 5,200  Level FlightAware
01:25PM -26.1110 28.2450 15° North 183 211 5,400 600 Climbing FlightAware
01:26PM -26.0920 28.2510 16° North 186 214 5,800 1,200 Climbing FlightAware
01:26PM -26.0780 28.2550 14° North 186 214 6,200 1,440 Climbing FlightAware
01:26PM -26.0550 28.2610 13° North 189 217 6,900 1,320 Climbing FlightAware
01:27PM -26.0420 28.2540 334° Northwest 194 223 7,200 1,200 Climbing FlightAware
01:27PM -26.0370 28.2450 302° West 196 226 7,400 1,200 Climbing FlightAware
01:27PM -26.0250 28.2200 298° West 203 234 8,000 1,020 Climbing FlightAware
01:28PM -26.0140 28.2070 313° West 217 250 8,200 720 Climbing FlightAware
01:28PM -25.9900 28.1900 328° Northwest 240 276 8,500 720 Climbing FlightAware
01:29PM -25.9610 28.1700 328° Northwest 269 310 8,900 1,200 Climbing FlightAware
01:29PM -25.9440 28.1590 330° Northwest 274 315 9,400 1,740 Climbing FlightAware
01:29PM -25.9000 28.1300 329° Northwest 293 337 10,500 1,260 Climbing FlightAware
01:30PM -25.8480 28.0890 325° Northwest 328 377 11,200 840 Climbing FlightAware
01:31PM -25.7960 28.0420 321° Northwest 362 417 11,700 1,080 Climbing FlightAware
01:32PM -25.7360 27.9890 321° Northwest 381 438 12,800 1,620 Climbing FlightAware
01:32PM -25.6830 27.9400 320° Northwest 386 444 14,000 1,860 Climbing FlightAware
01:33PM -25.6260 27.8890 321° Northwest 391 450 15,300 1,800 Climbing FlightAware
01:34PM -25.5600 27.8300 321° Northwest 396 456 16,600 1,440 Climbing FlightAware
01:34PM -25.5050 27.7810 321° Northwest 409 471 17,400 1,200 Climbing FlightAware
01:35PM -25.4450 27.7270 321° Northwest 420 483 18,200 1,440 Climbing FlightAware
01:36PM -25.3740 27.6650 322° Northwest 422 486 19,500 1,380 Climbing FlightAware
01:36PM -25.3180 27.6150 321° Northwest 429 494 20,200 1,260 Climbing FlightAware
01:37PM -25.2500 27.5530 320° Northwest 433 498 21,200 1,260 Climbing FlightAware
01:38PM -25.1950 27.5050 322° Northwest 436 502 21,900 1,080 Climbing FlightAware
01:39PM -25.1950 27.5050 322° Northwest 444 511 22,900 720 Climbing FlightAware
01:39PM -25.0510 27.3770 321° Northwest 445 512 23,000 60 Climbing FlightAware
01:40PM -24.9970 27.3280 321° Northwest 445 512 23,000  Level FlightAware
01:41PM -24.9430 27.2800 321° Northwest 445 512 23,000  Level FlightAware
01:41PM -24.8880 27.2310 321° Northwest 445 512 23,000  Level FlightAware
01:42PM -24.8340 27.1830 321° Northwest 445 512 23,000  Level FlightAware
01:43PM -24.7660 27.1220 321° Northwest 445 512 23,000  Level FlightAware
01:45PM -24.5534 27.0717 348° North  Level Estimated
01:46PM -24.4284 27.0422 348° North  Level Estimated
01:47PM -24.3034 27.0127 348° North  Level Estimated
01:48PM -24.1783 26.9834 348° North  Level Estimated
01:49PM -24.0532 26.9540 348° North  Level Estimated
01:50PM -23.9282 26.9247 348° North  Level Estimated
01:51PM -23.8031 26.8955 348° North  Level Estimated
01:52PM -23.6780 26.8664 348° North  Level Estimated
01:53PM -23.5529 26.8372 348° North  Level Estimated
01:54PM -23.4278 26.8082 348° North  Level Estimated
01:55PM -23.3027 26.7792 348° North  Level Estimated
01:56PM -23.1777 26.7503 348° North  Level Estimated
01:57PM -23.0525 26.7214 348° North  Level Estimated
01:58PM -22.9274 26.6925 348° North  Level Estimated
01:59PM -22.8023 26.6637 348° North  Level Estimated
02:00PM -22.6772 26.6350 348° North  Level Estimated
02:01PM -22.5521 26.6063 348° North  Level Estimated
02:02PM -22.4270 26.5777 348° North  Level Estimated
02:03PM -22.3018 26.5491 348° North  Level Estimated
02:04PM -22.1767 26.5206 348° North  Level Estimated
02:05PM -22.0515 26.4921 348° North  Level Estimated
02:06PM -21.9264 26.4637 348° North  Level Estimated
02:07PM -21.8012 26.4354 348° North  Level Estimated
02:08PM -21.6761 26.4070 348° North  Level Estimated
02:09PM -21.5509 26.3788 348° North  Level Estimated
02:10PM -21.4257 26.3505 348° North  Level Estimated
02:11PM -21.3006 26.3224 348° North  Level Estimated
02:12PM -21.1754 26.2942 348° North  Level Estimated
02:13PM -21.0502 26.2662 348° North  Level Estimated
02:14PM -20.9250 26.2381 348° North  Level Estimated
02:15PM -20.7998 26.2101 348° North  Level Estimated
02:16PM -20.6746 26.1822 348° North  Level Estimated
02:17PM -20.5494 26.1543 348° North  Level Estimated
02:18PM -20.4242 26.1265 348° North  Level Estimated
02:19PM -20.2990 26.0987 348° North  Level Estimated
02:20PM -20.1738 26.0709 348° North  Level Estimated
02:21PM -20.0486 26.0432 348° North  Level Estimated
02:22PM -19.9233 26.0155 348° North  Level Estimated
02:23PM -19.7981 25.9879 348° North  Level Estimated
02:24PM -19.6729 25.9603 348° North  Level Estimated
02:25PM -19.5476 25.9328 348° North  Level Estimated
02:26PM -19.4224 25.9053 348° North  Level Estimated
02:27PM -19.2972 25.8778 348° North  Level Estimated
02:28PM -19.1719 25.8504 348° North  Level Estimated
02:29PM -19.0467 25.8230 348° North  Level Estimated
02:30PM -18.9214 25.7957 348° North  Level Estimated
02:31PM -18.7961 25.7684 348° North  Level Estimated
02:32PM -18.6709 25.7412 348° North  Level Estimated
02:33PM -18.5456 25.7140 348° North  Level Estimated
02:34PM -18.4203 25.6868 348° North  Level Estimated
02:35PM -18.2951 25.6597 348° North  Level Estimated
02:36PM -18.1698 25.6326 348° North  Level Estimated
02:37PM -18.0445 25.6055 348° North  Level Estimated
02:38PM -17.9192 25.5785 348° North  Level Estimated
02:39PM -17.7939 25.5515 348° North  Level Estimated
02:40PM -17.6686 25.5246 348° North  Level Estimated
02:41PM -17.5433 25.4977 348° North  Level Estimated
02:42PM -17.4180 25.4708 348° North  Level Estimated
02:43PM -17.2927 25.4440 348° North  Level Estimated
02:44PM -17.1674 25.4172 348° North  Level Estimated
02:45PM -17.0421 25.3905 348° North  Level Estimated
02:46PM -16.9168 25.3638 348° North  Level Estimated
02:47PM -16.7915 25.3371 348° North  Level Estimated
02:48PM -16.6661 25.3104 348° North  Level Estimated
02:49PM -16.5408 25.2838 348° North  Level Estimated
02:50PM -16.4155 25.2573 349° North  Level Estimated
02:51PM -16.2901 25.2307 349° North  Level Estimated
02:52PM -16.1648 25.2042 349° North  Level Estimated
02:53PM -16.0395 25.1777 349° North  Level Estimated
02:54PM -15.9141 25.1513 349° North  Level Estimated
02:55PM -15.7888 25.1249 349° North  Level Estimated
02:56PM -15.6634 25.0985 349° North  Level Estimated
02:57PM -15.5381 25.0722 349° North  Level Estimated
02:58PM -15.4127 25.0459 349° North  Level Estimated
02:59PM -15.2873 25.0196 349° North  Level Estimated
03:00PM -15.1620 24.9933 349° North  Level Estimated
03:01PM -15.0366 24.9671 349° North  Level Estimated
03:02PM -14.9113 24.9409 349° North  Level Estimated
03:03PM -14.7859 24.9148 349° North  Level Estimated
03:04PM -14.6605 24.8887 349° North  Level Estimated
03:05PM -14.5351 24.8626 349° North  Level Estimated
03:06PM -14.4097 24.8365 349° North  Level Estimated
03:07PM -14.2844 24.8105 349° North  Level Estimated
03:08PM -14.1590 24.7845 349° North  Level Estimated
03:09PM -14.0336 24.7585 349° North  Level Estimated
03:10PM -13.9082 24.7325 349° North  Level Estimated
03:11PM -13.7828 24.7066 349° North  Level Estimated
03:12PM -13.6574 24.6807 349° North  Level Estimated
03:13PM -13.5320 24.6549 349° North  Level Estimated
03:14PM -13.4066 24.6290 349° North  Level Estimated
03:15PM -13.2812 24.6032 349° North  Level Estimated
03:16PM -13.1558 24.5774 349° North  Level Estimated
03:17PM -13.0304 24.5517 349° North  Level Estimated
03:18PM -12.9050 24.5259 349° North  Level Estimated
03:19PM -12.7796 24.5002 349° North  Level Estimated
03:20PM -12.6542 24.4745 349° North  Level Estimated
03:21PM -12.5287 24.4489 349° North  Level Estimated
03:22PM -12.4033 24.4233 349° North  Level Estimated
03:23PM -12.2779 24.3976 349° North  Level Estimated
03:24PM -12.1525 24.3721 349° North  Level Estimated
03:25PM -12.0270 24.3465 349° North  Level Estimated
03:26PM -11.9016 24.3210 349° North  Level Estimated
03:27PM -11.7762 24.2955 349° North  Level Estimated
03:28PM -11.6507 24.2700 349° North  Level Estimated
03:29PM -11.5253 24.2445 349° North  Level Estimated
03:30PM -11.3998 24.2191 349° North  Level Estimated
03:31PM -11.2744 24.1936 349° North  Level Estimated
03:32PM -11.1490 24.1682 349° North  Level Estimated
03:33PM -11.0235 24.1429 349° North  Level Estimated
03:34PM -10.8981 24.1175 349° North  Level Estimated
03:35PM -10.7726 24.0922 349° North  Level Estimated
03:36PM -10.6472 24.0669 349° North  Level Estimated
03:37PM -10.5217 24.0416 349° North  Level Estimated
03:38PM -10.3962 24.0163 349° North  Level Estimated
03:39PM -10.2708 23.9911 349° North  Level Estimated
03:40PM -10.1453 23.9658 349° North  Level Estimated
03:41PM -10.0199 23.9406 349° North  Level Estimated
03:42PM -9.8944 23.9154 349° North  Level Estimated
03:43PM -9.7689 23.8903 349° North  Level Estimated
03:44PM -9.6434 23.8651 349° North  Level Estimated
03:45PM -9.5180 23.8400 349° North  Level Estimated
03:46PM -9.3925 23.8149 349° North  Level Estimated
03:47PM -9.2670 23.7898 349° North  Level Estimated
03:48PM -9.1416 23.7647 349° North  Level Estimated
03:49PM -9.0161 23.7396 349° North  Level Estimated
03:50PM -8.8906 23.7146 349° North  Level Estimated
03:51PM -8.7651 23.6896 349° North  Level Estimated
03:52PM -8.6396 23.6646 349° North  Level Estimated
03:53PM -8.5142 23.6396 349° North  Level Estimated
03:54PM -8.3887 23.6146 349° North  Level Estimated
03:55PM -8.2632 23.5896 349° North  Level Estimated
03:56PM -8.1377 23.5647 349° North  Level Estimated
03:57PM -8.0122 23.5398 349° North  Level Estimated
03:58PM -7.8867 23.5149 349° North  Level Estimated
03:59PM -7.7612 23.4900 349° North  Level Estimated
04:00PM -7.6357 23.4651 349° North  Level Estimated
04:01PM -7.5102 23.4402 349° North  Level Estimated
04:02PM -7.3847 23.4153 349° North  Level Estimated
04:03PM -7.2592 23.3905 349° North  Level Estimated
04:04PM -7.1337 23.3657 349° North  Level Estimated
04:05PM -7.0082 23.3409 349° North  Level Estimated
04:06PM -6.8827 23.3161 349° North  Level Estimated
04:07PM -6.7572 23.2913 349° North  Level Estimated
04:08PM -6.6317 23.2665 349° North  Level Estimated
04:09PM -6.5062 23.2418 349° North  Level Estimated
04:10PM -6.3807 23.2170 349° North  Level Estimated
04:11PM -6.2552 23.1923 349° North  Level Estimated
04:12PM -6.1297 23.1675 349° North  Level Estimated
04:13PM -6.0042 23.1428 349° North  Level Estimated
04:14PM -5.8787 23.1181 349° North  Level Estimated
04:15PM -5.7531 23.0934 349° North  Level Estimated
04:16PM -5.6276 23.0688 349° North  Level Estimated
04:17PM -5.5021 23.0441 349° North  Level Estimated
04:18PM -5.3766 23.0194 349° North  Level Estimated
04:19PM -5.2511 22.9948 349° North  Level Estimated
04:20PM -5.1255 22.9701 349° North  Level Estimated
04:21PM -5.0000 22.9455 349° North  Level Estimated
04:22PM -4.8745 22.9209 349° North  Level Estimated
04:23PM -4.7490 22.8963 349° North  Level Estimated
04:24PM -4.6235 22.8717 349° North  Level Estimated
04:25PM -4.4980 22.8471 349° North  Level Estimated
04:26PM -4.3724 22.8225 349° North  Level Estimated
04:27PM -4.2469 22.7979 349° North  Level Estimated
04:28PM -4.1214 22.7734 349° North  Level Estimated
04:29PM -3.9958 22.7488 349° North  Level Estimated
04:30PM -3.8703 22.7243 349° North  Level Estimated
04:31PM -3.7448 22.6997 349° North  Level Estimated
04:32PM -3.6193 22.6752 349° North  Level Estimated
04:33PM -3.4937 22.6506 349° North  Level Estimated
04:34PM -3.3682 22.6261 349° North  Level Estimated
04:35PM -3.2427 22.6016 349° North  Level Estimated
04:36PM -3.1171 22.5771 349° North  Level Estimated
04:37PM -2.9916 22.5526 349° North  Level Estimated
04:38PM -2.8661 22.5281 349° North  Level Estimated
04:39PM -2.7405 22.5036 349° North  Level Estimated
04:40PM -2.6150 22.4791 349° North  Level Estimated
04:41PM -2.4895 22.4546 349° North  Level Estimated
04:42PM -2.3640 22.4301 349° North  Level Estimated
04:43PM -2.2384 22.4056 349° North  Level Estimated
04:44PM -2.1129 22.3812 349° North  Level Estimated
04:45PM -1.9873 22.3567 349° North  Level Estimated
04:46PM -1.8618 22.3322 349° North  Level Estimated
04:47PM -1.7363 22.3078 349° North  Level Estimated
04:48PM -1.6107 22.2833 349° North  Level Estimated
04:49PM -1.4852 22.2589 349° North  Level Estimated
04:50PM -1.3596 22.2344 349° North  Level Estimated
04:51PM -1.2341 22.2100 349° North  Level Estimated
04:52PM -1.1086 22.1855 349° North  Level Estimated
04:53PM -0.9830 22.1611 349° North  Level Estimated
04:54PM -0.8575 22.1366 349° North  Level Estimated
04:55PM -0.7319 22.1122 349° North  Level Estimated
04:56PM -0.6064 22.0877 349° North  Level Estimated
04:57PM -0.4809 22.0633 349° North  Level Estimated
04:58PM -0.3553 22.0389 349° North  Level Estimated
04:59PM -0.2298 22.0144 349° North  Level Estimated
05:00PM -0.1042 21.9900 349° North  Level Estimated
05:01PM 0.0213 21.9655 349° North  Level Estimated
05:02PM 0.1468 21.9411 349° North  Level Estimated
05:03PM 0.2724 21.9167 349° North  Level Estimated
05:04PM 0.3979 21.8922 349° North  Level Estimated
05:05PM 0.5235 21.8678 349° North  Level Estimated
05:06PM 0.6490 21.8433 349° North  Level Estimated
05:07PM 0.7745 21.8189 349° North  Level Estimated
05:08PM 0.9001 21.7945 349° North  Level Estimated
05:09PM 1.0256 21.7700 349° North  Level Estimated
05:10PM 1.1512 21.7456 349° North  Level Estimated
05:11PM 1.2767 21.7211 349° North  Level Estimated
05:12PM 1.4022 21.6967 349° North  Level Estimated
05:13PM 1.5278 21.6722 349° North  Level Estimated
05:14PM 1.6533 21.6478 349° North  Level Estimated
05:15PM 1.7789 21.6233 349° North  Level Estimated
05:16PM 1.9044 21.5989 349° North  Level Estimated
05:17PM 2.0299 21.5744 349° North  Level Estimated
05:18PM 2.1555 21.5499 349° North  Level Estimated
05:19PM 2.2810 21.5254 349° North  Level Estimated
05:20PM 2.4065 21.5010 349° North  Level Estimated
05:21PM 2.5321 21.4765 349° North  Level Estimated
05:22PM 2.6576 21.4520 349° North  Level Estimated
05:23PM 2.7831 21.4275 349° North  Level Estimated
05:24PM 2.9087 21.4030 349° North  Level Estimated
05:25PM 3.0342 21.3785 349° North  Level Estimated
05:26PM 3.1597 21.3540 349° North  Level Estimated
05:27PM 3.2853 21.3295 349° North  Level Estimated
05:28PM 3.4108 21.3050 349° North  Level Estimated
05:29PM 3.5363 21.2804 349° North  Level Estimated
05:30PM 3.6618 21.2559 349° North  Level Estimated
05:31PM 3.7874 21.2314 349° North  Level Estimated
05:32PM 3.9129 21.2068 349° North  Level Estimated
05:33PM 4.0384 21.1823 349° North  Level Estimated
05:34PM 4.1640 21.1577 349° North  Level Estimated
05:35PM 4.2895 21.1331 349° North  Level Estimated
05:36PM 4.4150 21.1085 349° North  Level Estimated
05:37PM 4.5405 21.0840 349° North  Level Estimated
05:38PM 4.6661 21.0594 349° North  Level Estimated
05:39PM 4.7916 21.0348 349° North  Level Estimated
05:40PM 4.9171 21.0102 349° North  Level Estimated
05:41PM 5.0426 20.9855 349° North  Level Estimated
05:42PM 5.1681 20.9609 349° North  Level Estimated
05:43PM 5.2937 20.9363 349° North  Level Estimated
05:44PM 5.4192 20.9116 349° North  Level Estimated
05:45PM 5.5447 20.8869 349° North  Level Estimated
05:46PM 5.6702 20.8623 349° North  Level Estimated
05:47PM 5.7957 20.8376 349° North  Level Estimated
05:48PM 5.9212 20.8129 349° North  Level Estimated
05:49PM 6.0468 20.7882 349° North  Level Estimated
05:50PM 6.1723 20.7635 349° North  Level Estimated
05:51PM 6.2978 20.7388 349° North  Level Estimated
05:52PM 6.4233 20.7140 349° North  Level Estimated
05:53PM 6.5488 20.6893 349° North  Level Estimated
05:54PM 6.6743 20.6645 349° North  Level Estimated
05:55PM 6.7998 20.6397 349° North  Level Estimated
05:56PM 6.9253 20.6149 349° North  Level Estimated
05:57PM 7.0508 20.5901 349° North  Level Estimated
05:58PM 7.1763 20.5653 349° North  Level Estimated
05:59PM 7.3018 20.5405 349° North  Level Estimated
06:00PM 7.4273 20.5156 349° North  Level Estimated
06:01PM 7.5528 20.4908 349° North  Level Estimated
06:02PM 7.6783 20.4659 349° North  Level Estimated
06:03PM 7.8038 20.4410 349° North  Level Estimated
06:04PM 7.9293 20.4161 349° North  Level Estimated
06:05PM 8.0548 20.3912 349° North  Level Estimated
06:06PM 8.1803 20.3662 349° North  Level Estimated
06:07PM 8.3058 20.3413 349° North  Level Estimated
06:08PM 8.4312 20.3163 349° North  Level Estimated
06:09PM 8.5567 20.2913 349° North  Level Estimated
06:10PM 8.6822 20.2663 349° North  Level Estimated
06:11PM 8.8077 20.2413 349° North  Level Estimated
06:12PM 8.9332 20.2163 349° North  Level Estimated
06:13PM 9.0587 20.1912 349° North  Level Estimated
06:14PM 9.1841 20.1662 349° North  Level Estimated
06:15PM 9.3096 20.1411 349° North  Level Estimated
06:16PM 9.4351 20.1160 349° North  Level Estimated
06:17PM 9.5606 20.0909 349° North  Level Estimated
06:18PM 9.6860 20.0657 349° North  Level Estimated
06:19PM 9.8115 20.0406 349° North  Level Estimated
06:20PM 9.9370 20.0154 349° North  Level Estimated
06:21PM 10.0624 19.9902 349° North  Level Estimated
06:22PM 10.1879 19.9650 349° North  Level Estimated
06:23PM 10.3133 19.9397 349° North  Level Estimated
06:24PM 10.4388 19.9145 349° North  Level Estimated
06:25PM 10.5643 19.8892 349° North  Level Estimated
06:26PM 10.6897 19.8639 349° North  Level Estimated
06:27PM 10.8152 19.8386 349° North  Level Estimated
06:28PM 10.9406 19.8132 349° North  Level Estimated
06:29PM 11.0661 19.7879 349° North  Level Estimated
06:30PM 11.1915 19.7625 349° North  Level Estimated
06:31PM 11.3170 19.7371 349° North  Level Estimated
06:32PM 11.4424 19.7117 349° North  Level Estimated
06:33PM 11.5678 19.6862 349° North  Level Estimated
06:34PM 11.6933 19.6607 349° North  Level Estimated
06:35PM 11.8187 19.6353 349° North  Level Estimated
06:36PM 11.9441 19.6097 349° North  Level Estimated
06:37PM 12.0696 19.5842 349° North  Level Estimated
06:38PM 12.1950 19.5586 349° North  Level Estimated
06:39PM 12.3204 19.5330 349° North  Level Estimated
06:40PM 12.4459 19.5074 349° North  Level Estimated
06:41PM 12.5713 19.4818 349° North  Level Estimated
06:42PM 12.6967 19.4561 349° North  Level Estimated
06:43PM 12.8221 19.4304 349° North  Level Estimated
06:44PM 12.9475 19.4047 349° North  Level Estimated
06:45PM 13.0729 19.3790 349° North  Level Estimated
06:46PM 13.1983 19.3532 349° North  Level Estimated
06:47PM 13.3238 19.3274 349° North  Level Estimated
06:48PM 13.4492 19.3016 349° North  Level Estimated
06:49PM 13.5746 19.2757 349° North  Level Estimated
06:50PM 13.7000 19.2499 349° North  Level Estimated
06:51PM 13.8254 19.2240 349° North  Level Estimated
06:52PM 13.9508 19.1980 349° North  Level Estimated
06:53PM 14.0761 19.1721 349° North  Level Estimated
06:54PM 14.2015 19.1461 349° North  Level Estimated
06:55PM 14.3269 19.1201 349° North  Level Estimated
06:56PM 14.4523 19.0940 349° North  Level Estimated
06:57PM 14.5777 19.0679 349° North  Level Estimated
06:58PM 14.7030 19.0418 349° North  Level Estimated
06:59PM 14.8284 19.0157 349° North  Level Estimated
07:00PM 14.9538 18.9895 349° North  Level Estimated
07:01PM 15.0792 18.9634 349° North  Level Estimated
07:02PM 15.2045 18.9371 349° North  Level Estimated
07:03PM 15.3299 18.9109 349° North  Level Estimated
07:04PM 15.4552 18.8846 349° North  Level Estimated
07:05PM 15.5806 18.8582 349° North  Level Estimated
07:06PM 15.7059 18.8319 349° North  Level Estimated
07:07PM 15.8313 18.8055 349° North  Level Estimated
07:08PM 15.9566 18.7791 349° North  Level Estimated
07:09PM 16.0820 18.7526 349° North  Level Estimated
07:10PM 16.2073 18.7262 349° North  Level Estimated
07:11PM 16.3327 18.6996 349° North  Level Estimated
07:12PM 16.4580 18.6731 349° North  Level Estimated
07:13PM 16.5833 18.6465 349° North  Level Estimated
07:14PM 16.7087 18.6199 349° North  Level Estimated
07:15PM 16.8340 18.5932 348° North  Level Estimated
07:16PM 16.9593 18.5665 348° North  Level Estimated
07:17PM 17.0846 18.5398 348° North  Level Estimated
07:18PM 17.2099 18.5130 348° North  Level Estimated
07:19PM 17.3352 18.4862 348° North  Level Estimated
07:20PM 17.4605 18.4594 348° North  Level Estimated
07:21PM 17.5858 18.4325 348° North  Level Estimated
07:22PM 17.7111 18.4056 348° North  Level Estimated
07:23PM 17.8364 18.3787 348° North  Level Estimated
07:24PM 17.9617 18.3517 348° North  Level Estimated
07:25PM 18.0870 18.3247 348° North  Level Estimated
07:26PM 18.2123 18.2976 348° North  Level Estimated
07:27PM 18.3376 18.2705 348° North  Level Estimated
07:28PM 18.4629 18.2434 348° North  Level Estimated
07:29PM 18.5881 18.2162 348° North  Level Estimated
07:30PM 18.7134 18.1890 348° North  Level Estimated
07:31PM 18.8386 18.1617 348° North  Level Estimated
07:32PM 18.9639 18.1344 348° North  Level Estimated
07:33PM 19.0892 18.1071 348° North  Level Estimated
07:34PM 19.2144 18.0797 348° North  Level Estimated
07:35PM 19.3397 18.0522 348° North  Level Estimated
07:36PM 19.4649 18.0248 348° North  Level Estimated
07:37PM 19.5902 17.9973 348° North  Level Estimated
07:38PM 19.7154 17.9697 348° North  Level Estimated
07:39PM 19.8406 17.9421 348° North  Level Estimated
07:40PM 19.9658 17.9145 348° North  Level Estimated
07:41PM 20.0911 17.8868 348° North  Level Estimated
07:42PM 20.2163 17.8591 348° North  Level Estimated
07:43PM 20.3415 17.8313 348° North  Level Estimated
07:44PM 20.4667 17.8035 348° North  Level Estimated
07:45PM 20.5919 17.7756 348° North  Level Estimated
07:46PM 20.7171 17.7477 348° North  Level Estimated
07:47PM 20.8423 17.7197 348° North  Level Estimated
07:48PM 20.9675 17.6917 348° North  Level Estimated
07:49PM 21.0927 17.6637 348° North  Level Estimated
07:50PM 21.2179 17.6356 348° North  Level Estimated
07:51PM 21.3430 17.6075 348° North  Level Estimated
07:52PM 21.4682 17.5793 348° North  Level Estimated
07:53PM 21.5934 17.5510 348° North  Level Estimated
07:54PM 21.7185 17.5227 348° North  Level Estimated
07:55PM 21.8437 17.4944 348° North  Level Estimated
07:56PM 21.9688 17.4660 348° North  Level Estimated
07:57PM 22.0940 17.4376 348° North  Level Estimated
07:58PM 22.2191 17.4091 348° North  Level Estimated
07:59PM 22.3443 17.3805 348° North  Level Estimated
08:00PM 22.4694 17.3519 348° North  Level Estimated
08:01PM 22.5945 17.3233 348° North  Level Estimated
08:02PM 22.7197 17.2946 348° North  Level Estimated
08:03PM 22.8448 17.2659 348° North  Level Estimated
08:04PM 22.9699 17.2371 348° North  Level Estimated
08:05PM 23.0950 17.2082 348° North  Level Estimated
08:06PM 23.2201 17.1793 348° North  Level Estimated
08:07PM 23.3452 17.1504 348° North  Level Estimated
08:08PM 23.4703 17.1213 348° North  Level Estimated
08:09PM 23.5954 17.0923 348° North  Level Estimated
08:10PM 23.7205 17.0631 348° North  Level Estimated
08:11PM 23.8455 17.0340 348° North  Level Estimated
08:12PM 23.9706 17.0047 348° North  Level Estimated
08:13PM 24.0957 16.9754 348° North  Level Estimated
08:14PM 24.2207 16.9461 348° North  Level Estimated
08:15PM 24.3458 16.9167 348° North  Level Estimated
08:16PM 24.4708 16.8872 348° North  Level Estimated
08:17PM 24.5959 16.8577 348° North  Level Estimated
08:18PM 24.7209 16.8281 348° North  Level Estimated
08:19PM 24.8459 16.7984 348° North  Level Estimated
08:20PM 24.9710 16.7687 348° North  Level Estimated
08:21PM 25.0960 16.7389 348° North  Level Estimated
08:22PM 25.2210 16.7091 348° North  Level Estimated
08:23PM 25.3460 16.6792 348° North  Level Estimated
08:24PM 25.4710 16.6493 348° North  Level Estimated
08:25PM 25.5960 16.6192 348° North  Level Estimated
08:26PM 25.7210 16.5892 348° North  Level Estimated
08:27PM 25.8460 16.5590 348° North  Level Estimated
08:28PM 25.9709 16.5288 348° North  Level Estimated
08:29PM 26.0959 16.4986 348° North  Level Estimated
08:30PM 26.2209 16.4682 348° North  Level Estimated
08:31PM 26.3458 16.4378 348° North  Level Estimated
08:32PM 26.4708 16.4074 348° North  Level Estimated
08:33PM 26.5957 16.3768 348° North  Level Estimated
08:34PM 26.7207 16.3462 348° North  Level Estimated
08:35PM 26.8456 16.3156 348° North  Level Estimated
08:36PM 26.9705 16.2848 348° North  Level Estimated
08:37PM 27.0954 16.2540 348° North  Level Estimated
08:38PM 27.2203 16.2232 348° North  Level Estimated
08:39PM 27.3452 16.1922 348° North  Level Estimated
08:40PM 27.4701 16.1612 348° North  Level Estimated
08:41PM 27.5950 16.1301 348° North  Level Estimated
08:42PM 27.7199 16.0990 348° North  Level Estimated
08:43PM 27.8448 16.0678 348° North  Level Estimated
08:44PM 27.9697 16.0365 348° North  Level Estimated
08:45PM 28.0945 16.0051 348° North  Level Estimated
08:46PM 28.2194 15.9737 347° North  Level Estimated
08:47PM 28.3442 15.9422 347° North  Level Estimated
08:48PM 28.4691 15.9106 347° North  Level Estimated
08:49PM 28.5939 15.8789 347° North  Level Estimated
08:50PM 28.7187 15.8472 347° North  Level Estimated
08:51PM 28.8435 15.8154 347° North  Level Estimated
08:52PM 28.9684 15.7835 347° North  Level Estimated
08:53PM 29.0932 15.7515 347° North  Level Estimated
08:54PM 29.2180 15.7195 347° North  Level Estimated
08:55PM 29.3428 15.6874 347° North  Level Estimated
08:56PM 29.4675 15.6552 347° North  Level Estimated
08:57PM 29.5923 15.6229 347° North  Level Estimated
08:58PM 29.7171 15.5906 347° North  Level Estimated
08:59PM 29.8418 15.5581 347° North  Level Estimated
09:00PM 29.9666 15.5256 347° North  Level Estimated
09:01PM 30.0913 15.4930 347° North  Level Estimated
09:02PM 30.2160 15.4603 347° North  Level Estimated
09:03PM 30.3408 15.4275 347° North  Level Estimated
09:04PM 30.4655 15.3947 347° North  Level Estimated
09:05PM 30.5902 15.3618 347° North  Level Estimated
09:06PM 30.7149 15.3287 347° North  Level Estimated
09:07PM 30.8396 15.2956 347° North  Level Estimated
09:08PM 30.9643 15.2625 347° North  Level Estimated
09:09PM 31.0890 15.2292 347° North  Level Estimated
09:10PM 31.2136 15.1958 347° North  Level Estimated
09:11PM 31.3383 15.1623 347° North  Level Estimated
09:11PM 32.6720 10.8950 347° North 461 531 38,000  Level FlightAware
09:12PM 31.4629 15.1288 347° North  Level Estimated
09:12PM 32.7560 10.8830 353° North 460 529 38,000  Level FlightAware
09:12PM 32.8340 10.8710 353° North 459 528 38,000  Level FlightAware
09:13PM 32.9570 10.8510 352° North 457 526 38,000  Level FlightAware
09:14PM 33.0290 10.8390 352° North 457 526 38,000  Level FlightAware
09:15PM 33.1430 10.8240 354° North 455 524 38,000  Level FlightAware
09:15PM 33.2260 10.8110 353° North 455 524 38,000  Level FlightAware
09:16PM 33.3210 10.7960 352° North 455 524 38,000  Level FlightAware
09:17PM 33.4060 10.7830 353° North 456 525 38,000  Level FlightAware
09:17PM 33.4900 10.7700 353° North 455 524 38,000  Level FlightAware
09:18PM 33.5820 10.7560 353° North 453 521 38,000  Level FlightAware
09:19PM 33.6520 10.7450 353° North 452 520 38,000  Level FlightAware
09:20PM 33.7620 10.7280 353° North 454 522 38,000  Level FlightAware
09:20PM 33.8470 10.7150 353° North 455 524 38,000  Level FlightAware
09:21PM 33.9270 10.7030 353° North 455 524 38,000  Level FlightAware
09:22PM 34.0210 10.6880 352° North 454 522 38,000  Level FlightAware
09:22PM 34.1050 10.6750 353° North 454 522 38,000  Level FlightAware
09:23PM 34.2010 10.6600 353° North 455 524 38,000  Level FlightAware
09:24PM 34.2840 10.6470 353° North 454 522 38,000  Level FlightAware
09:24PM 34.3660 10.6340 353° North 452 520 38,000  Level FlightAware
09:25PM 34.4590 10.6190 352° North 453 521 38,000  Level FlightAware
09:26PM 34.5430 10.6060 353° North 454 522 38,000  Level FlightAware
09:27PM 34.6400 10.5910 353° North 455 524 38,000  Level FlightAware
09:27PM 34.7220 10.5780 353° North 456 525 38,000  Level FlightAware
09:28PM 34.8050 10.5640 352° North 455 524 38,000  Level FlightAware
09:29PM 34.8980 10.5500 353° North 457 526 38,000  Level FlightAware
09:29PM 34.9830 10.5360 352° North 458 527 38,000  Level FlightAware
09:30PM 35.0680 10.5230 353° North 458 527 38,000  Level FlightAware
09:31PM 35.1650 10.5070 352° North 458 527 38,000  Level FlightAware
09:31PM 35.2480 10.4940 353° North 457 526 38,000  Level FlightAware
09:32PM 35.3390 10.4790 352° North 457 526 38,000  Level FlightAware
09:33PM 35.4250 10.4650 352° North 458 527 38,000  Level FlightAware
09:34PM 35.5100 10.4510 352° North 457 526 38,000  Level FlightAware
09:34PM 35.6060 10.4360 353° North 458 527 38,000  Level FlightAware
09:35PM 35.6880 10.4220 352° North 456 525 38,000  Level FlightAware
09:36PM 35.7820 10.4070 353° North 458 527 38,000  Level FlightAware
09:36PM 35.8660 10.3940 353° North 460 529 38,000  Level FlightAware
09:37PM 35.9640 10.3770 352° North 461 531 38,000  Level FlightAware
09:38PM 36.0490 10.3640 353° North 460 529 38,000  Level FlightAware
09:38PM 36.1310 10.3500 352° North 460 529 38,000  Level FlightAware
09:39PM 36.2250 10.3350 353° North 460 529 38,000  Level FlightAware
09:40PM 36.3100 10.3210 352° North 461 531 38,000  Level FlightAware
09:41PM 36.4080 10.3040 352° North 462 532 38,000  Level FlightAware
09:41PM 36.4880 10.2910 353° North 461 531 38,000  Level FlightAware
09:42PM 36.5750 10.2770 353° North 460 529 38,000  Level FlightAware
09:43PM 36.6690 10.2610 352° North 458 527 38,000  Level FlightAware
09:43PM 36.7520 10.2470 352° North 455 524 38,000  Level FlightAware
09:44PM 36.8480 10.2310 352° North 452 520 38,000  Level FlightAware
09:45PM 36.9280 10.2070 347° North 446 513 38,000  Level FlightAware
09:45PM 37.0090 10.1820 346° North 449 517 38,000  Level FlightAware
09:46PM 37.0970 10.1540 346° North 450 518 38,000  Level FlightAware
09:47PM 37.1790 10.1290 346° North 452 520 38,000  Level FlightAware
09:48PM 37.2730 10.0990 346° North 453 521 38,000  Level FlightAware
09:48PM 37.3550 10.0730 346° North 454 522 38,000  Level FlightAware
09:49PM 37.4350 10.0480 346° North 455 524 38,000  Level FlightAware
09:50PM 37.5230 10.0210 346° North 455 524 38,000  Level FlightAware
09:50PM 37.6070 9.9940 346° North 456 525 38,000  Level FlightAware
09:51PM 37.7150 9.9590 346° North 455 524 38,000  Level FlightAware
09:52PM 37.7840 9.9360 345° North 455 524 38,000  Level FlightAware
09:53PM 37.8530 9.9120 345° North 455 524 38,000  Level FlightAware
09:53PM 37.9780 9.8820 349° North 461 531 38,000  Level FlightAware
09:54PM 38.0730 9.8560 348° North 460 529 38,000  Level FlightAware
09:55PM 38.1560 9.8330 348° North 459 528 38,000  Level FlightAware
09:56PM 38.2520 9.8050 347° North 459 528 38,000  Level FlightAware
09:56PM 38.3400 9.7790 347° North 459 528 38,000  Level FlightAware
09:57PM 38.4100 9.7590 347° North 459 528 38,000  Level FlightAware
09:58PM 38.4810 9.7380 347° North 459 528 38,000  Level FlightAware
09:58PM 38.5510 9.7170 347° North 459 528 38,000  Level FlightAware
09:59PM 38.6210 9.6960 347° North 459 528 38,000  Level FlightAware
10:00PM 38.7980 9.6530 349° North 455 524 38,000  Level FlightAware
10:01PM 38.9010 9.6240 348° North 455 524 38,000  Level FlightAware
10:01PM 38.9740 9.6030 347° North 455 524 38,000  Level FlightAware
10:02PM 39.0610 9.5770 347° North 455 524 38,000  Level FlightAware
10:03PM 39.1310 9.5560 347° North 455 524 38,000  Level FlightAware
10:04PM 39.2000 9.5350 347° North 455 524 38,000  Level FlightAware
10:04PM 39.2700 9.5140 347° North 455 524 38,000  Level FlightAware
10:05PM 39.4470 9.4680 349° North 446 513 38,000  Level FlightAware
10:06PM 39.5230 9.4450 347° North 447 514 38,000  Level FlightAware
10:07PM 39.5910 9.4250 347° North 447 514 38,000  Level FlightAware
10:07PM 39.7080 9.4040 352° North 468 539 38,000  Level FlightAware
10:08PM 39.7790 9.3830 347° North 468 539 38,000  Level FlightAware
10:09PM 39.8980 9.4150 12° North 474 545 38,000  Level FlightAware
10:10PM 40.0100 9.4120 359° North 476 548 38,000  Level FlightAware
10:11PM 40.1040 9.4100 359° North 475 547 38,000  Level FlightAware
10:11PM 40.2340 9.4070 359° North 469 540 38,000  Level FlightAware
10:12PM 40.3280 9.4050 359° North 470 541 38,000  Level FlightAware
10:13PM 40.4270 9.4020 359° North 468 539 38,000  Level FlightAware
10:13PM 40.5150 9.4000 359° North 466 536 38,000  Level FlightAware
10:14PM 40.6020 9.3980 359° North 464 534 38,000  Level FlightAware
10:15PM 40.7010 9.3960 359° North 466 536 38,000  Level FlightAware
10:16PM 40.7890 9.3940 359° North 467 537 38,000  Level FlightAware
10:16PM 40.8880 9.3910 359° North 467 537 38,000  Level FlightAware
10:17PM 40.9760 9.3890 359° North 469 540 38,000  Level FlightAware
10:18PM 41.0650 9.3870 359° North 468 539 38,000  Level FlightAware
10:18PM 41.1640 9.3850 359° North 469 540 38,000  Level FlightAware
10:19PM 41.2520 9.3830 359° North 479 551 38,000  Level FlightAware
10:20PM 41.3420 9.3800 359° North 479 551 38,000  Level FlightAware
10:20PM 41.4170 9.3790 359° North 470 541 38,000  Level FlightAware
10:21PM 41.5120 9.3760 359° North 467 537 38,000  Level FlightAware
10:22PM 41.6310 9.3730 359° North 478 550 38,000  Level FlightAware
10:23PM 41.7200 9.3710 359° North 480 552 38,000  Level FlightAware
10:23PM 41.8090 9.3690 359° North 474 545 38,000  Level FlightAware
10:24PM 41.9100 9.3660 359° North 477 549 38,000  Level FlightAware
10:25PM 41.9940 9.3640 359° North 477 549 38,000  Level FlightAware
10:25PM 42.0950 9.3620 359° North 478 550 38,000  Level FlightAware
10:26PM 42.1840 9.3590 359° North 481 554 38,000  Level FlightAware
10:27PM 42.2820 9.3570 359° North 478 550 38,000  Level FlightAware
10:27PM 42.3730 9.3550 359° North 477 549 38,000 60 Level FlightAware
10:28PM 42.4610 9.3520 359° North 479 551 38,100 420 Climbing FlightAware
10:29PM 42.5500 9.3500 359° North 484 557 38,600 720 Climbing FlightAware
10:30PM 42.6500 9.3480 359° North 485 558 39,200 660 Climbing FlightAware
10:30PM 42.7390 9.3450 359° North 487 560 39,600 540 Climbing FlightAware
10:31PM 42.8420 9.3430 359° North 486 559 40,000 240 Climbing FlightAware
10:32PM 42.9320 9.3410 359° North 492 566 40,000  Level FlightAware
10:32PM 43.0320 9.3330 357° North 489 563 40,000  Level FlightAware
10:33PM 43.1350 9.3200 355° North 492 566 40,000  Level FlightAware
10:34PM 43.2270 9.3110 356° North 491 565 40,000  Level FlightAware
10:34PM 43.3170 9.3010 355° North 490 564 40,000  Level FlightAware
10:35PM 43.4170 9.2910 356° North 490 564 40,000  Level FlightAware
10:36PM 43.5080 9.2810 355° North 487 560 40,000  Level FlightAware
10:37PM 43.6060 9.2710 356° North 489 563 40,000  Level FlightAware
10:37PM 43.6960 9.2610 355° North 492 566 40,000  Level FlightAware
10:38PM 43.7880 9.2510 356° North 493 567 40,000  Level FlightAware
10:39PM 43.8930 9.2400 356° North 488 562 40,000  Level FlightAware
10:39PM 43.9830 9.2310 356° North 489 563 40,000  Level FlightAware
10:40PM 44.0840 9.2200 356° North 491 565 40,000  Level FlightAware
10:41PM 44.1740 9.2100 355° North 488 562 40,000  Level FlightAware
10:41PM 44.2620 9.2010 356° North 487 560 40,000  Level FlightAware
10:42PM 44.3660 9.1890 355° North 490 564 40,000  Level FlightAware
10:43PM 44.4580 9.1790 356° North 490 564 40,000  Level FlightAware
10:44PM 44.5480 9.1700 356° North 490 564 40,000  Level FlightAware
10:44PM 44.6480 9.1590 356° North 489 563 40,000  Level FlightAware
10:45PM 44.7460 9.1480 355° North 489 563 40,000  Level FlightAware
10:46PM 44.8380 9.1380 356° North 489 563 40,000  Level FlightAware
10:46PM 44.9270 9.1280 355° North 489 563 40,000  Level FlightAware
10:47PM 45.0170 9.1180 356° North 488 562 40,000  Level FlightAware
10:48PM 45.1200 9.1060 355° North 486 559 40,000  Level FlightAware
10:48PM 45.2080 9.0970 356° North 482 555 40,000  Level FlightAware
10:49PM 45.3100 9.0850 355° North 483 556 40,000  Level FlightAware
10:50PM 45.3800 9.0770 355° North 485 558 40,000  Level FlightAware
10:50PM 45.4760 9.0660 355° North 486 559 40,000  Level FlightAware
10:51PM 45.5900 9.0540 356° North 487 560 40,000  Level FlightAware
10:52PM 45.6800 9.0430 355° North 487 560 40,000  Level FlightAware
10:53PM 45.7820 9.0320 356° North 491 565 40,000  Level FlightAware
10:53PM 45.8710 9.0220 356° North 490 564 40,000  Level FlightAware
10:54PM 45.9710 9.0100 355° North 491 565 40,000  Level FlightAware
10:55PM 46.0360 9.0090 359° North 497 572 40,000  Level FlightAware
10:55PM 46.1360 9.0190 North 497 572 40,000  Level FlightAware
10:56PM 46.2200 9.0260 North 497 572 40,000  Level FlightAware
10:57PM 46.3310 9.0350 North 495 570 40,000  Level FlightAware
10:57PM 46.4140 9.0420 North 494 568 40,000  Level FlightAware
10:58PM 46.5230 9.0510 North 497 572 40,000  Level FlightAware
10:59PM 46.6280 9.0600 North 501 577 40,000  Level FlightAware
11:00PM 46.7310 9.0680 North 502 578 40,000  Level FlightAware
11:00PM 46.8320 9.0770 North 496 571 40,000  Level FlightAware
11:01PM 46.9280 9.0850 North 497 572 40,000  Level FlightAware
11:02PM 47.0310 9.0940 North 497 572 40,000  Level FlightAware
11:02PM 47.1140 9.1010 North 499 574 40,000  Level FlightAware
11:04PM 47.2850 9.1150 North 496 571 40,000  Level FlightAware
11:05PM 47.4100 9.1260 North 498 573 40,000  Level FlightAware
11:05PM 47.5170 9.1360 North 500 575 40,000  Level FlightAware
11:06PM 47.6100 9.1440 North 500 575 40,000  Level FlightAware
11:07PM 47.7170 9.1530 North 499 574 40,000  Level FlightAware
11:07PM 47.8110 9.1610 North 503 579 40,000  Level FlightAware
11:08PM 47.9050 9.1690 North 503 579 40,000 -960 Level FlightAware
11:09PM 48.0080 9.1790 North 499 574 38,700 -1,920 Descending FlightAware
11:09PM 48.1050 9.1870 North 497 572 37,300 -1,980 Descending FlightAware
11:10PM 48.2080 9.1960 North 499 574 35,900 -1,980 Descending FlightAware
11:11PM 48.3020 9.2050 North 512 589 34,500 -2,040 Descending FlightAware
11:12PM 48.3970 9.2130 North 513 590 33,200 -1,920 Descending FlightAware
11:12PM 48.4810 9.2210 North 530 610 32,100 -2,100 Descending FlightAware
11:13PM 48.6080 9.2320 North 534 615 30,300 -2,040 Descending FlightAware
11:14PM 48.7200 9.2430 North 533 613 28,900 -1,980 Descending FlightAware
11:14PM 48.8170 9.2510 North 519 597 27,500 -2,040 Descending FlightAware
11:15PM 48.9140 9.2600 North 511 588 26,200 -1,860 Descending FlightAware
11:16PM 49.0210 9.2700 North 498 573 24,900 -1,740 Descending FlightAware
11:16PM 49.1150 9.2790 North 500 575 23,800 -1,860 Descending FlightAware
11:17PM 49.2150 9.3060 10° North 490 564 22,300 -1,800 Descending FlightAware
11:18PM 49.3210 9.3530 16° North 473 544 21,000 -1,980 Descending FlightAware
11:19PM 49.4140 9.3950 16° North 453 521 19,200 -2,640 Descending FlightAware
11:20PM 49.5010 9.4360 17° North 439 505 17,100 -2,700 Descending FlightAware
11:20PM 49.5780 9.4720 17° North 420 483 15,400 -1,800 Descending FlightAware
11:21PM 49.6410 9.5020 17° North 405 466 14,900 -780 Descending FlightAware
11:22PM 49.7380 9.5280 10° North 362 417 14,200 -720 Descending FlightAware
11:22PM 49.7830 9.4820 327° Northwest 302 348 13,900 -600 Descending FlightAware
11:23PM 49.8200 9.4200 313° West 285 328 13,500 -540 Descending FlightAware
11:24PM 49.8580 9.3550 312° West 252 290 13,200 -600 Descending FlightAware
11:24PM 49.8660 9.3310 297° West 241 277 12,900 -1,140 Descending FlightAware
11:25PM 49.8740 9.2640 281° West 239 275 12,200 -1,080 Descending FlightAware
11:25PM 49.8860 9.1890 284° West 239 275 11,400 -1,080 Descending FlightAware
11:26PM 49.8950 9.1220 282° West 236 272 10,700 -1,020 Descending FlightAware
11:27PM 49.9090 9.0570 289° West 245 282 10,100 -780 Descending FlightAware
11:27PM 49.9230 9.0430 327° Northwest 255 293 10,000 -240 Descending FlightAware
11:27PM 49.9410 9.0420 358° North 264 304 10,000  Level FlightAware
11:27PM 49.9570 9.0540 26° Northeast 270 311 10,000 -600 Level FlightAware
11:28PM 49.9700 9.0760 47° Northeast 274 315 9,700 -1,080 Descending FlightAware
11:28PM 49.9890 9.1150 53° Northeast 272 313 9,300 -780 Descending FlightAware
11:29PM 50.0130 9.1620 52° Northeast 280 322 9,000 -420 Descending FlightAware
11:29PM 50.0290 9.1830 40° Northeast 275 316 9,000  Level FlightAware
11:29PM 50.0560 9.2030 25° Northeast 267 307 9,000  Level FlightAware
11:30PM 50.0740 9.2150 23° Northeast 262 302 9,000  Level FlightAware
11:30PM 50.1000 9.2110 354° North 257 296 9,000  Level FlightAware
11:30PM 50.1180 9.2000 339° North 253 291 9,000 -840 Level FlightAware
11:31PM 50.1530 9.1740 335° Northwest 246 283 8,300 -1,320 Descending FlightAware
11:31PM 50.1660 9.1440 304° West 230 265 7,800 -1,500 Descending FlightAware
11:32PM 50.1590 9.0940 258° West 216 249 7,200 -1,560 Descending FlightAware
11:32PM 50.1500 9.0500 252° West 212 244 6,400 -1,200 Descending FlightAware
11:33PM 50.1410 9.0160 248° West 199 229 6,100 -900 Descending FlightAware
11:33PM 50.1320 8.9760 251° West 187 215 5,600 -780 Descending FlightAware
11:33PM 50.1270 8.9560 249° West 183 211 5,400 -840 Descending FlightAware
11:34PM 50.1200 8.9240 251° West 184 212 4,900 -900 Descending FlightAware
11:34PM 50.1100 8.8830 249° West 167 192 4,500 -600 Descending FlightAware
11:35PM 50.1040 8.8560 251° West 166 191 4,300 -600 Descending FlightAware
11:35PM 50.0960 8.8220 250° West 170 196 4,000 -780 Descending FlightAware
11:36PM 50.0890 8.7920 250° West 173 199 3,600 -1,020 Descending FlightAware
11:36PM 50.0810 8.7570 250° West 171 197 3,100 -960 Descending FlightAware
11:37PM 50.0760 8.7380 248° West 162 186 2,800 -900 Descending FlightAware
11:37PM 50.0670 8.7000 250° West 132 152 2,300 -840 Descending FlightAware
11:38PM 50.0620 8.6790 250° West 125 144 2,000 -420 Descending FlightAware
11:38PM 50.0550 8.6520 248° West 126 145 1,900 -180 Descending FlightAware
11:41PM 50.0264 8.5431 248° West  Level Estimated
11:42PM 50.0264 8.5431 73° East  Level Estimated
11:43PM 50.0264 8.5431 73° East  Level Estimated
11:44PM 50.0264 8.5431 73° East  Level Estimated
11:45PM 50.0264 8.5431 73° East  Level Estimated
11:46PM 50.0264 8.5431 73° East  Level Estimated
11:47PM 50.0264 8.5431 73° East  Level Estimated
11:48PM 50.0264 8.5431 73° East  Level Estimated
11:49PM 50.0264 8.5431 73° East  Level Estimated
11:50PM 50.0264 8.5431 73° East  Level Estimated
11:51PM 50.0264 8.5431 73° East  Level Estimated
11:52PM 50.0264 8.5431 73° East  Level Estimated